SBMT

Details ICAO SBMT
Name MARTE
Region Brazil
Timezone America/Sao_Paulo (UTC-2.0)
Plans Departing 112
Arriving 35
Stats Elevation 2,368 ft / 722 m (AMSL)
Location -23.509120° -46.637754°
Runways 1
Magnetic Variation 21.324° W
Sunrise 2017-12-11 08:14:41 UTC / 2017-12-11 06:14:41 Local
Sunset 2017-12-11 21:47:57 UTC / 2017-12-11 19:47:57 Local
Advertisement - Login to hide

Runways

ID Width Length Bearing (true) Bearing (mag) Surface Threshold Offset Overrun Length
12 148 ft / 45 m 5,241 ft / 1,597 m 100.34° 121.66° Asphalt 985 ft / 300 m 0 ft / 0 m
30 148 ft / 45 m 5,241 ft / 1,597 m 280.33° 301.65° Asphalt 490 ft / 149 m 0 ft / 0 m

Map

Weather


0- 5 10 15 20 25 30 35+ Temperature / ° C

Clouds and Precipitation
Forecast for 2017-12-12 00:00 UTC. Updated 2 hours ago

Ground ~20,000 ft ~40,000 ft Winds

METAR

SBMT 120000Z 15011KT 8000 BKN012 19/17 Q1015

TAF

Not found

Frequencies

Ground 121.60 MHz GND
Approach 119.80 MHz SAO PAULO APP
Approach 129.50 MHz SAO PAULO APP
Tower 118.70 MHz TWR
Approach 120.05 MHz SAO PAULO APP
Warning: Do not use this data for real-world aviation or navigation. No guarantee of current accuracy is given.